Time;durP1;ratioP1;P1;durP2;ratioP2;P2;SDS_P1;SDS_P2;PMS_P1;PMS_P2;Temp;Humidity;BMP_temperature;BMP_pressure;BME280_temperature;BME280_humidity;BME280_pressure;Samples;Min_cycle;Max_cycle;Signal;HPM_P1;HPM_P2
2021/10/17 07:06:44;;;;;;;22.33;10.85;;;;;;;3.24;100.00;99436.50;5131171;27;20890;-82
2021/10/17 07:09:14;;;;;;;21.83;12.07;;;;;;;3.50;100.00;99453.06;5131665;28;20093;-82
2021/10/17 07:11:41;;;;;;;22.73;11.43;;;;;;;3.51;100.00;99460.16;5131258;28;20052;-82
2021/10/17 07:14:07;;;;;;;19.33;11.80;;;;;;;3.58;100.00;99465.00;5131466;28;20044;-82
2021/10/17 07:16:34;;;;;;;19.58;12.02;;;;;;;3.60;100.00;99446.88;5131234;27;20105;-82
2021/10/17 07:19:02;;;;;;;21.15;12.25;;;;;;;3.80;100.00;99456.75;5131637;28;20066;-82
2021/10/17 07:21:29;;;;;;;20.45;13.25;;;;;;;4.01;100.00;99467.47;5130679;28;20051;-82
2021/10/17 07:24:02;;;;;;;22.98;12.65;;;;;;;4.07;100.00;99458.00;5131161;28;20044;-82
2021/10/17 07:26:28;;;;;;;21.63;13.23;;;;;;;4.28;100.00;99471.41;5130970;27;20043;-82
2021/10/17 07:28:55;;;;;;;20.90;12.23;;;;;;;4.29;100.00;99459.66;5130751;28;20051;-82
2021/10/17 07:31:22;;;;;;;20.15;11.95;;;;;;;4.38;100.00;99457.94;5122062;28;20051;-82
2021/10/17 07:33:52;;;;;;;18.90;11.55;;;;;;;4.55;100.00;99457.28;5109761;28;20487;-82
2021/10/17 07:36:19;;;;;;;18.20;10.73;;;;;;;4.75;100.00;99463.53;5109318;28;20043;-83
2021/10/17 07:38:46;;;;;;;15.77;10.20;;;;;;;4.92;100.00;99458.44;5110337;28;20055;-83
2021/10/17 07:41:14;;;;;;;16.60;10.35;;;;;;;4.91;100.00;99457.59;5110513;28;20067;-82
2021/10/17 07:43:40;;;;;;;16.88;10.32;;;;;;;5.10;100.00;99455.88;5109972;28;20055;-82
2021/10/17 07:46:07;;;;;;;15.68;10.38;;;;;;;5.02;100.00;99456.59;5117045;28;20100;-82
2021/10/17 07:48:40;;;;;;;17.45;10.13;;;;;;;5.12;100.00;99456.63;5131136;27;20104;-82
2021/10/17 07:51:06;;;;;;;20.77;12.13;;;;;;;5.29;100.00;99461.25;5121047;28;20093;-82
2021/10/17 07:53:33;;;;;;;15.90;10.30;;;;;;;5.31;100.00;99455.72;5109677;28;20044;-82
2021/10/17 07:56:01;;;;;;;19.30;11.20;;;;;;;5.46;100.00;99465.06;5105866;28;20056;-83
2021/10/17 07:58:29;;;;;;;37.60;20.05;;;;;;;5.54;100.00;99466.19;5089989;28;20117;-83
2021/10/17 08:00:56;;;;;;;27.45;15.73;;;;;;;5.39;100.00;99472.06;5089415;28;20045;-82
2021/10/17 08:03:23;;;;;;;20.77;11.82;;;;;;;5.37;100.00;99457.00;5089782;28;20114;-83
2021/10/17 08:05:49;;;;;;;26.45;12.43;;;;;;;5.58;100.00;99479.25;5089083;28;20048;-82
2021/10/17 08:08:16;;;;;;;20.00;11.32;;;;;;;5.66;100.00;99478.50;5089115;28;20488;-83
2021/10/17 08:10:43;;;;;;;26.00;12.70;;;;;;;5.56;100.00;99475.00;5088957;28;20093;-83
2021/10/17 08:13:10;;;;;;;33.42;13.52;;;;;;;5.56;100.00;99477.72;5089157;28;20075;-82
2021/10/17 08:15:41;;;;;;;28.27;14.05;;;;;;;5.65;100.00;99472.28;5086922;28;20048;-82
2021/10/17 08:18:08;;;;;;;30.05;14.25;;;;;;;5.74;100.00;99475.94;5073602;28;20068;-83
2021/10/17 08:20:35;;;;;;;26.30;12.50;;;;;;;5.94;100.00;99481.28;5075863;28;20046;-81
2021/10/17 08:23:01;;;;;;;29.73;12.20;;;;;;;5.84;100.00;99484.00;5075366;28;20205;-81
2021/10/17 08:25:30;;;;;;;31.50;11.95;;;;;;;5.79;100.00;99478.19;5075311;28;20477;-81
2021/10/17 08:28:00;;;;;;;34.22;13.60;;;;;;;5.95;100.00;99483.84;5074448;28;20484;-81
2021/10/17 08:30:27;;;;;;;24.55;12.68;;;;;;;6.06;100.00;99495.47;5074480;28;20641;-81
2021/10/17 08:32:56;;;;;;;24.15;13.57;;;;;;;5.82;100.00;99486.84;5082424;28;20446;-81
2021/10/17 08:35:23;;;;;;;28.63;14.83;;;;;;;5.81;100.00;99484.28;5092688;28;20486;-81
2021/10/17 08:37:49;;;;;;;30.15;14.55;;;;;;;5.98;100.00;99496.22;5094214;28;20105;-82
2021/10/17 08:40:16;;;;;;;30.40;14.18;;;;;;;6.02;100.00;99495.78;5082548;28;20114;-81
2021/10/17 08:42:43;;;;;;;30.40;13.93;;;;;;;6.04;100.00;99490.22;5075152;28;20411;-82
2021/10/17 08:45:10;;;;;;;24.38;13.70;;;;;;;6.08;100.00;99502.44;5075260;28;20094;-81
2021/10/17 08:47:38;;;;;;;32.38;14.38;;;;;;;6.24;100.00;99503.66;5094635;28;20076;-81
2021/10/17 08:50:08;;;;;;;45.22;19.95;;;;;;;6.23;100.00;99489.28;5095241;28;20044;-81
2021/10/17 08:52:35;;;;;;;70.28;32.47;;;;;;;6.30;100.00;99490.41;5095025;28;20056;-81
2021/10/17 08:55:03;;;;;;;29.35;15.63;;;;;;;6.41;100.00;99504.69;5095450;28;20078;-81
2021/10/17 08:57:30;;;;;;;25.15;13.73;;;;;;;6.42;100.00;99490.22;5092929;28;20082;-81
2021/10/17 09:00:00;;;;;;;28.65;14.13;;;;;;;6.44;100.00;99485.50;5095297;28;20430;-84
2021/10/17 09:02:27;;;;;;;28.75;15.20;;;;;;;6.51;100.00;99475.78;5095131;28;20051;-82
2021/10/17 09:05:06;;;;;;;25.70;14.68;;;;;;;6.51;100.00;99490.16;5094408;28;20532;-83
2021/10/17 09:07:34;;;;;;;27.45;15.77;;;;;;;6.77;100.00;99491.28;5094968;28;20048;-83
2021/10/17 09:10:08;;;;;;;27.05;14.05;;;;;;;6.85;100.00;99492.22;5095340;28;20047;-83
2021/10/17 09:12:36;;;;;;;27.92;14.40;;;;;;;7.13;100.00;99500.25;5094867;28;20055;-83
2021/10/17 09:15:22;;;;;;;26.25;14.88;;;;;;;6.99;100.00;99471.91;5093477;28;20047;-83
2021/10/17 09:18:18;;;;;;;22.58;14.32;;;;;;;6.98;100.00;99483.72;5088598;28;20052;-83
2021/10/17 09:21:00;;;;;;;29.25;16.40;;;;;;;6.99;100.00;99482.72;5074583;28;20049;-83
2021/10/17 09:23:43;;;;;;;28.27;14.95;;;;;;;6.79;100.00;99481.16;5082196;28;20135;-83
2021/10/17 09:26:17;;;;;;;22.92;14.60;;;;;;;6.60;100.00;99474.03;5094014;28;20124;-83
2021/10/17 09:28:44;;;;;;;25.65;14.48;;;;;;;6.80;100.00;99489.09;5093753;28;20432;-84
2021/10/17 09:31:13;;;;;;;26.05;14.50;;;;;;;6.68;100.00;99496.56;5094815;28;20075;-84
2021/10/17 09:33:46;;;;;;;31.73;15.82;;;;;;;6.72;100.00;99497.13;5094265;28;20113;-84
2021/10/17 09:36:37;;;;;;;25.67;14.77;;;;;;;6.82;100.00;99492.53;5094233;28;20051;-83
2021/10/17 09:39:11;;;;;;;27.25;14.85;;;;;;;6.72;100.00;99487.16;5081404;28;20457;-84
2021/10/17 09:41:50;;;;;;;26.40;15.57;;;;;;;6.81;100.00;99479.16;5094368;28;20055;-84
2021/10/17 09:44:18;;;;;;;29.73;17.02;;;;;;;6.91;100.00;99475.38;5094483;28;20468;-84
2021/10/17 09:47:18;;;;;;;26.92;15.90;;;;;;;6.94;100.00;99465.25;5094294;28;20048;-83
2021/10/17 09:49:47;;;;;;;29.05;15.90;;;;;;;7.18;100.00;99456.53;5091154;28;20384;-84
2021/10/17 09:52:17;;;;;;;27.00;17.77;;;;;;;7.38;100.00;99476.16;5094038;28;20202;-84
2021/10/17 09:54:47;;;;;;;29.52;16.95;;;;;;;7.18;100.00;99468.22;5090020;28;20093;-84
2021/10/17 09:57:14;;;;;;;25.42;15.27;;;;;;;7.28;100.00;99483.50;5094290;28;20506;-84
2021/10/17 09:59:41;;;;;;;27.48;17.08;;;;;;;7.32;100.00;99474.91;5093906;28;20052;-84
2021/10/17 10:02:10;;;;;;;27.10;16.50;;;;;;;7.24;100.00;99473.00;5094393;28;20047;-84
2021/10/17 10:04:40;;;;;;;24.77;16.05;;;;;;;7.20;100.00;99459.94;5093934;28;20052;-84
2021/10/17 10:07:08;;;;;;;30.55;17.77;;;;;;;7.25;100.00;99469.25;5093447;28;20082;-84
2021/10/17 10:09:37;;;;;;;28.55;16.73;;;;;;;7.50;100.00;99465.91;5093878;28;20097;-84
2021/10/17 10:12:40;;;;;;;29.10;17.13;;;;;;;7.62;100.00;99470.91;5093802;28;20126;-84
2021/10/17 10:15:12;;;;;;;27.90;16.75;;;;;;;7.68;100.00;99455.91;5093196;28;20063;-84
2021/10/17 10:17:43;;;;;;;26.13;15.05;;;;;;;7.74;100.00;99476.06;5093303;28;20044;-84
2021/10/17 10:20:10;;;;;;;28.10;16.15;;;;;;;7.83;100.00;99474.25;5087411;28;20060;-84
2021/10/17 10:22:37;;;;;;;28.65;16.75;;;;;;;7.69;100.00;99479.22;5089840;28;20044;-84
2021/10/17 10:25:37;;;;;;;28.75;16.52;;;;;;;7.64;100.00;99464.50;5080224;28;20047;-84
2021/10/17 10:28:10;;;;;;;24.15;15.02;;;;;;;7.76;100.00;99474.03;5086809;28;20040;-84
2021/10/17 10:30:38;;;;;;;27.00;16.88;;;;;;;7.85;100.00;99461.41;5081523;28;20048;-82
2021/10/17 10:33:13;;;;;;;30.45;18.13;;;;;;;7.93;100.00;99473.16;5089080;28;20138;-83
2021/10/17 10:36:26;;;;;;;28.38;16.83;;;;;;;8.06;100.00;99479.97;5091126;28;20048;-83
2021/10/17 10:42:16;;;;;;;29.98;17.33;;;;;;;8.09;100.00;99477.78;5083168;28;20051;-83
2021/10/17 10:44:49;;;;;;;32.63;19.33;;;;;;;7.78;100.00;99469.31;5085211;28;20051;-86
2021/10/17 10:47:24;;;;;;;32.60;18.55;;;;;;;7.83;100.00;99479.66;5083285;28;20472;-82
2021/10/17 10:49:52;;;;;;;30.05;16.92;;;;;;;8.05;100.00;99480.97;5088551;28;20083;-82
2021/10/17 10:52:52;;;;;;;31.55;19.15;;;;;;;8.09;100.00;99472.38;5084607;28;20036;-82
2021/10/17 10:55:44;;;;;;;31.88;19.88;;;;;;;8.10;100.00;99471.38;5082345;28;20048;-82
2021/10/17 10:58:22;;;;;;;27.83;18.25;;;;;;;8.24;100.00;99477.19;5082631;28;20626;-81
2021/10/17 11:00:57;;;;;;;34.97;19.58;;;;;;;8.02;100.00;99473.19;5081997;28;20664;-82
2021/10/17 11:03:26;;;;;;;33.75;20.17;;;;;;;8.19;100.00;99477.69;5083009;28;20044;-82
2021/10/17 11:06:18;;;;;;;30.77;18.77;;;;;;;8.13;100.00;99475.63;5086561;28;20052;-82
2021/10/17 11:09:25;;;;;;;35.38;19.65;;;;;;;8.20;100.00;99462.28;5080641;28;20040;-82
2021/10/17 11:11:52;;;;;;;34.97;20.35;;;;;;;8.42;100.00;99461.69;5082512;28;20043;-82
2021/10/17 11:14:20;;;;;;;34.15;19.83;;;;;;;8.45;100.00;99466.81;5083272;28;20051;-83
2021/10/17 11:16:47;;;;;;;34.58;20.40;;;;;;;8.58;100.00;99454.66;5084760;28;20407;-83
2021/10/17 11:19:16;;;;;;;31.63;18.45;;;;;;;8.49;100.00;99451.06;5083963;28;20116;-82
2021/10/17 11:21:43;;;;;;;30.98;19.27;;;;;;;8.38;100.00;99459.47;5086437;28;20482;-82
2021/10/17 11:24:10;;;;;;;30.50;18.95;;;;;;;8.59;100.00;99450.94;5083347;28;20052;-82
2021/10/17 11:26:39;;;;;;;32.38;19.63;;;;;;;8.44;100.00;99438.00;5089218;28;20483;-82
2021/10/17 11:29:07;;;;;;;34.13;19.85;;;;;;;8.59;100.00;99435.50;5085755;28;20044;-82
2021/10/17 11:31:36;;;;;;;36.42;19.35;;;;;;;8.54;100.00;99439.75;5085462;28;20052;-82
2021/10/17 11:34:03;;;;;;;31.42;16.88;;;;;;;8.83;100.00;99448.25;5084262;28;20052;-82
2021/10/17 11:36:32;;;;;;;34.33;19.15;;;;;;;8.59;100.00;99432.81;5082457;28;20047;-82
2021/10/17 11:39:00;;;;;;;32.38;17.60;;;;;;;8.67;100.00;99449.09;5084958;28;20051;-82
2021/10/17 11:41:27;;;;;;;33.15;18.98;;;;;;;8.72;100.00;99439.63;5083448;28;20450;-81
2021/10/17 11:43:59;;;;;;;31.50;18.15;;;;;;;8.91;100.00;99442.00;5083787;28;20097;-82
2021/10/17 11:46:28;;;;;;;33.03;19.08;;;;;;;8.90;100.00;99431.31;5081998;28;20050;-82
2021/10/17 11:49:00;;;;;;;34.58;19.23;;;;;;;8.96;100.00;99427.97;5083417;28;20051;-82
2021/10/17 11:55:15;;;;;;;34.58;17.83;;;;;;;9.02;100.00;99424.59;5037869;28;20055;-82
2021/10/17 11:57:42;;;;;;;45.92;21.30;;;;;;;8.96;100.00;99417.13;5096830;28;20056;-82
2021/10/17 12:00:14;;;;;;;43.67;20.90;;;;;;;8.98;100.00;99425.94;5096799;28;20040;-81
2021/10/17 12:02:41;;;;;;;49.72;21.95;;;;;;;9.08;100.00;99406.75;5095763;28;20052;-83
2021/10/17 12:05:19;;;;;;;36.05;17.83;;;;;;;8.95;100.00;99427.09;5085024;28;20181;-82
2021/10/17 12:07:46;;;;;;;32.75;17.85;;;;;;;8.85;100.00;99410.13;5088174;28;20090;-83
2021/10/17 12:10:13;;;;;;;76.97;29.65;;;;;;;9.13;100.00;99426.09;5093844;28;20109;-82
2021/10/17 12:12:41;;;;;;;36.03;18.33;;;;;;;9.31;100.00;99421.34;5092078;28;20145;-82
2021/10/17 12:15:11;;;;;;;44.17;20.67;;;;;;;9.29;100.00;99411.69;5088877;28;20044;-82
2021/10/17 12:17:38;;;;;;;40.15;19.60;;;;;;;9.26;100.00;99412.00;5088913;28;20040;-82
2021/10/17 12:20:10;;;;;;;40.72;19.77;;;;;;;9.14;100.00;99401.53;5088117;28;20479;-81
2021/10/17 12:22:39;;;;;;;41.08;19.98;;;;;;;9.05;100.00;99410.69;5088977;28;20052;-81
2021/10/17 12:25:07;;;;;;;39.03;20.43;;;;;;;9.18;100.00;99383.91;5093418;28;20434;-83
2021/10/17 12:27:35;;;;;;;29.67;17.55;;;;;;;9.26;100.00;99391.19;5089113;28;20911;-85
2021/10/17 12:30:12;;;;;;;27.30;15.63;;;;;;;9.33;99.45;99389.50;5087501;28;20136;-86
2021/10/17 12:32:48;;;;;;;32.60;16.27;;;;;;;9.39;99.61;99407.78;5082800;28;20050;-84
2021/10/17 12:35:26;;;;;;;27.63;15.57;;;;;;;9.32;100.00;99408.63;5083393;28;20048;-85
2021/10/17 12:37:53;;;;;;;34.05;15.32;;;;;;;9.16;100.00;99399.47;5087939;28;20166;-85
2021/10/17 12:40:20;;;;;;;27.73;15.57;;;;;;;9.29;100.00;99396.25;5085729;28;20127;-84
2021/10/17 12:42:56;;;;;;;34.38;17.52;;;;;;;9.22;100.00;99392.53;5085924;28;20479;-85
2021/10/17 12:45:28;;;;;;;42.30;19.95;;;;;;;9.23;100.00;99387.94;5086301;28;20060;-85
2021/10/17 12:47:55;;;;;;;30.85;15.90;;;;;;;9.15;100.00;99389.66;5086121;28;20043;-85
2021/10/17 12:50:25;;;;;;;27.38;14.63;;;;;;;9.28;100.00;99389.13;5084567;28;20458;-83
2021/10/17 12:53:00;;;;;;;25.90;14.65;;;;;;;9.17;99.58;99392.22;5089257;28;20126;-83
2021/10/17 12:55:35;;;;;;;28.95;15.20;;;;;;;9.18;100.00;99397.47;5084198;28;20059;-82
2021/10/17 12:58:04;;;;;;;33.80;16.75;;;;;;;9.19;100.00;99395.59;5084195;28;20489;-82
2021/10/17 13:00:33;;;;;;;28.30;15.07;;;;;;;9.18;100.00;99388.47;5084218;28;20059;-82
2021/10/17 13:03:20;;;;;;;26.10;14.85;;;;;;;9.08;100.00;99402.22;5084502;28;20479;-83
2021/10/17 13:05:49;;;;;;;27.27;15.50;;;;;;;9.21;100.00;99396.25;5081813;28;20179;-83
2021/10/17 13:08:17;;;;;;;28.13;15.80;;;;;;;9.24;100.00;99386.94;5094050;28;20047;-83
2021/10/17 13:10:43;;;;;;;27.83;15.50;;;;;;;9.17;100.00;99384.91;5089426;28;20052;-83
2021/10/17 13:13:23;;;;;;;30.70;16.38;;;;;;;9.00;100.00;99389.50;5089536;28;20049;-83
2021/10/17 13:15:56;;;;;;;28.05;15.43;;;;;;;9.06;100.00;99374.38;5090171;28;20544;-83
2021/10/17 13:18:23;;;;;;;24.77;14.23;;;;;;;9.07;100.00;99384.22;5086070;28;20048;-83
2021/10/17 13:20:52;;;;;;;27.05;15.02;;;;;;;8.99;100.00;99384.25;5083268;28;20385;-83
2021/10/17 13:23:23;;;;;;;28.13;14.38;;;;;;;8.95;100.00;99393.72;5083580;28;20232;-83
2021/10/17 13:25:53;;;;;;;26.88;14.85;;;;;;;8.86;100.00;99382.03;5086024;28;20154;-82
2021/10/17 13:28:20;;;;;;;31.45;16.63;;;;;;;8.86;100.00;99387.44;5084044;28;20040;-83
2021/10/17 13:30:48;;;;;;;25.85;14.88;;;;;;;8.92;100.00;99408.47;5079916;28;20094;-83
2021/10/17 13:33:19;;;;;;;29.50;14.73;;;;;;;8.97;100.00;99405.25;5086192;28;20044;-83
2021/10/17 13:35:46;;;;;;;25.50;14.38;;;;;;;8.82;100.00;99399.63;5083336;28;20130;-82
2021/10/17 13:38:15;;;;;;;25.13;14.10;;;;;;;8.79;100.00;99400.84;5074182;28;20066;-83
2021/10/17 13:40:42;;;;;;;33.43;14.70;;;;;;;8.82;100.00;99407.75;5087220;28;20048;-82
2021/10/17 13:43:09;;;;;;;27.63;14.70;;;;;;;8.60;100.00;99390.31;5085833;28;20047;-83
2021/10/17 13:45:37;;;;;;;25.42;14.57;;;;;;;8.74;100.00;99392.34;5087062;28;20469;-83
2021/10/17 13:48:05;;;;;;;26.15;13.82;;;;;;;8.77;100.00;99394.72;5084063;28;20043;-82
2021/10/17 13:50:34;;;;;;;30.25;15.30;;;;;;;8.72;100.00;99380.84;5084074;28;20423;-83
2021/10/17 13:53:02;;;;;;;31.80;15.70;;;;;;;8.87;100.00;99391.88;5086310;28;20136;-83
2021/10/17 13:55:29;;;;;;;32.70;14.48;;;;;;;8.82;100.00;99391.50;5085384;28;20060;-83
2021/10/17 13:57:56;;;;;;;30.00;15.32;;;;;;;8.89;100.00;99403.38;5085847;28;20398;-83
2021/10/17 14:00:26;;;;;;;30.13;15.57;;;;;;;8.93;100.00;99396.59;5093007;28;20492;-83
2021/10/17 14:02:54;;;;;;;;;;;;;;;8.81;100.00;99403.38;5090952;28;20055;-81
2021/10/17 14:05:21;;;;;;;27.88;14.75;;;;;;;8.91;100.00;99401.34;5086303;28;19927;-82
2021/10/17 14:07:49;;;;;;;30.90;15.82;;;;;;;8.86;100.00;99399.13;5085773;28;20055;-82
2021/10/17 14:10:16;;;;;;;31.73;15.93;;;;;;;8.71;100.00;99389.97;5085514;28;20051;-82
2021/10/17 14:12:43;;;;;;;28.48;15.45;;;;;;;8.85;100.00;99392.03;5085376;28;20097;-82
2021/10/17 14:15:10;;;;;;;28.13;17.00;;;;;;;8.91;100.00;99405.91;5081083;28;20066;-82
2021/10/17 14:17:37;;;;;;;28.42;16.02;;;;;;;8.66;100.00;99408.59;5083162;28;21665;-82
2021/10/17 14:20:06;;;;;;;26.90;16.45;;;;;;;8.66;100.00;99416.75;5084060;28;20120;-82
2021/10/17 14:22:32;;;;;;;29.35;16.63;;;;;;;8.65;100.00;99415.88;5082553;28;20048;-82
2021/10/17 14:25:01;;;;;;;31.05;17.35;;;;;;;8.55;100.00;99417.91;5081046;28;20048;-82
2021/10/17 14:27:28;;;;;;;26.58;16.38;;;;;;;8.59;100.00;99421.97;5083657;28;20048;-82
2021/10/17 14:29:59;;;;;;;25.58;15.25;;;;;;;8.53;100.00;99414.50;5086650;28;20169;-83
2021/10/17 14:32:26;;;;;;;27.08;15.18;;;;;;;8.57;100.00;99391.47;5081142;28;20695;-82
2021/10/17 14:34:53;;;;;;;26.95;15.45;;;;;;;8.52;100.00;99399.28;5082415;28;20056;-82
2021/10/17 14:37:20;;;;;;;24.27;15.25;;;;;;;8.68;100.00;99414.69;5083022;28;20052;-82
2021/10/17 14:39:47;;;;;;;26.05;14.95;;;;;;;8.62;100.00;99412.66;5082361;28;20045;-82
2021/10/17 14:42:16;;;;;;;24.98;14.90;;;;;;;8.62;100.00;99409.94;5084921;28;20511;-82
2021/10/17 14:44:43;;;;;;;26.90;15.80;;;;;;;8.56;100.00;99411.44;5091801;28;20066;-82
2021/10/17 14:47:10;;;;;;;25.00;15.00;;;;;;;8.53;100.00;99400.94;5086383;28;20135;-81
2021/10/17 14:49:37;;;;;;;27.98;16.70;;;;;;;8.51;100.00;99419.25;5084309;28;20089;-82
2021/10/17 14:52:04;;;;;;;28.67;17.40;;;;;;;8.50;100.00;99417.53;5088721;28;20097;-81
2021/10/17 14:54:31;;;;;;;29.75;16.83;;;;;;;8.54;100.00;99424.34;5083798;28;20495;-82
2021/10/17 14:56:57;;;;;;;27.90;16.33;;;;;;;8.57;100.00;99421.28;5085295;28;20040;-82
2021/10/17 14:59:26;;;;;;;29.38;17.67;;;;;;;8.47;100.00;99420.56;5085719;28;20051;-83
2021/10/17 15:01:55;;;;;;;29.17;16.92;;;;;;;8.45;100.00;99392.81;5085951;28;20135;-82
2021/10/17 15:04:21;;;;;;;30.80;16.58;;;;;;;8.55;100.00;99395.38;5084098;28;20119;-82
2021/10/17 15:06:54;;;;;;;30.15;16.30;;;;;;;8.41;100.00;99403.09;5087824;28;20063;-82
2021/10/17 15:09:30;;;;;;;27.48;15.82;;;;;;;8.41;100.00;99397.66;5092819;28;20052;-83
2021/10/17 15:11:57;;;;;;;30.15;16.65;;;;;;;8.39;100.00;99397.00;5093053;28;20495;-83
2021/10/17 15:14:29;;;;;;;27.30;16.52;;;;;;;8.45;100.00;99415.31;5091107;28;20048;-83
2021/10/17 15:16:57;;;;;;;33.33;16.95;;;;;;;8.46;100.00;99410.75;5091715;28;20112;-83
2021/10/17 15:19:24;;;;;;;27.52;16.00;;;;;;;8.39;100.00;99407.81;5091424;28;20048;-83
2021/10/17 15:21:51;;;;;;;26.23;15.90;;;;;;;8.44;100.00;99404.66;5091782;28;20051;-83
2021/10/17 15:24:18;;;;;;;26.95;15.65;;;;;;;8.50;100.00;99409.41;5091361;28;20048;-83
2021/10/17 15:26:46;;;;;;;28.17;16.27;;;;;;;8.57;100.00;99413.16;5092091;28;20055;-83
2021/10/17 15:29:14;;;;;;;28.08;17.02;;;;;;;8.63;100.00;99409.78;5079536;28;20118;-82
2021/10/17 15:31:42;;;;;;;32.22;17.92;;;;;;;8.56;100.00;99407.91;5075554;28;20105;-82
2021/10/17 15:34:11;;;;;;;41.58;20.88;;;;;;;8.49;100.00;99410.41;5084300;28;20110;-81
2021/10/17 15:36:37;;;;;;;36.08;18.05;;;;;;;8.17;100.00;99400.31;5086973;28;20056;-82
2021/10/17 15:39:06;;;;;;;29.63;17.95;;;;;;;8.24;100.00;99396.78;5095587;28;20463;-82
2021/10/17 15:41:39;;;;;;;27.35;16.13;;;;;;;8.27;100.00;99407.28;5095188;28;20122;-83
2021/10/17 15:44:06;;;;;;;30.38;17.40;;;;;;;8.26;100.00;99412.88;5095469;28;20044;-83
2021/10/17 15:46:34;;;;;;;39.28;22.00;;;;;;;8.41;100.00;99419.34;5094412;28;20055;-83
2021/10/17 15:49:02;;;;;;;36.75;20.23;;;;;;;8.29;100.00;99415.25;5094457;28;20059;-82
2021/10/17 15:51:29;;;;;;;43.88;20.25;;;;;;;8.33;100.00;99416.63;5095112;28;20044;-82
2021/10/17 15:53:58;;;;;;;39.00;18.25;;;;;;;8.42;100.00;99428.34;5094763;28;20556;-84
2021/10/17 15:56:25;;;;;;;35.63;19.38;;;;;;;8.27;100.00;99438.94;5094297;28;20048;-83
2021/10/17 15:58:52;;;;;;;35.65;19.05;;;;;;;8.25;100.00;99443.66;5095248;28;20143;-82
2021/10/17 16:01:19;;;;;;;30.58;17.52;;;;;;;8.20;100.00;99438.72;5094420;28;20431;-82
2021/10/17 16:03:46;;;;;;;35.78;19.30;;;;;;;8.23;100.00;99438.41;5094921;28;20048;-82
2021/10/17 16:06:15;;;;;;;34.97;18.60;;;;;;;8.23;100.00;99448.41;5095777;28;20060;-82
2021/10/17 16:08:42;;;;;;;40.13;22.63;;;;;;;8.40;100.00;99444.75;5076088;28;20472;-82
2021/10/17 16:11:11;;;;;;;32.97;18.77;;;;;;;8.24;100.00;99444.69;5074688;28;20067;-82
2021/10/17 16:13:37;;;;;;;30.33;19.60;;;;;;;8.31;100.00;99451.16;5074256;28;20052;-82
2021/10/17 16:16:06;;;;;;;32.83;17.95;;;;;;;8.22;100.00;99455.69;5056728;28;20438;-82
2021/10/17 16:18:32;;;;;;;30.67;18.42;;;;;;;8.27;100.00;99447.91;5077441;28;20048;-83
2021/10/17 16:20:59;;;;;;;29.58;18.38;;;;;;;8.22;100.00;99455.69;5094377;28;20487;-82
2021/10/17 16:23:27;;;;;;;32.47;18.58;;;;;;;8.19;100.00;99452.44;5079459;28;20403;-82
2021/10/17 16:25:55;;;;;;;37.28;20.73;;;;;;;8.13;100.00;99460.22;5093376;28;20106;-82
2021/10/17 16:28:23;;;;;;;38.08;20.00;;;;;;;8.10;100.00;99446.13;5094361;28;20540;-82
2021/10/17 16:30:58;;;;;;;43.03;22.98;;;;;;;8.10;100.00;99459.66;5093916;28;20048;-82
2021/10/17 16:33:26;;;;;;;46.85;22.52;;;;;;;7.97;100.00;99446.59;5094286;28;20048;-82
2021/10/17 16:35:52;;;;;;;34.88;20.02;;;;;;;7.96;100.00;99456.59;5093198;28;20052;-82
2021/10/17 16:38:21;;;;;;;64.90;35.05;;;;;;;7.93;100.00;99450.63;5088568;28;20045;-82
2021/10/17 16:40:50;;;;;;;92.28;55.05;;;;;;;7.84;100.00;99443.47;5078322;28;20082;-82
2021/10/17 16:43:17;;;;;;;154.93;78.97;;;;;;;7.97;100.00;99462.84;5094188;28;20048;-82
2021/10/17 16:45:45;;;;;;;44.80;24.95;;;;;;;7.82;100.00;99446.34;5093182;28;20105;-82
2021/10/17 16:48:12;;;;;;;67.78;38.58;;;;;;;7.92;100.00;99455.19;5094167;28;20102;-82
2021/10/17 16:50:40;;;;;;;89.50;50.38;;;;;;;7.87;100.00;99460.22;5095008;28;20101;-85
2021/10/17 16:53:07;;;;;;;163.70;82.45;;;;;;;8.01;100.00;99466.94;5095150;28;20052;-82
2021/10/17 16:55:36;;;;;;;47.45;25.85;;;;;;;8.00;100.00;99480.63;5095094;28;20052;-83
2021/10/17 16:58:05;;;;;;;41.40;22.47;;;;;;;7.90;100.00;99472.59;5093601;28;20055;-82
2021/10/17 17:00:32;;;;;;;101.00;56.25;;;;;;;8.05;100.00;99480.97;5093859;28;20194;-82
2021/10/17 17:03:00;;;;;;;57.63;31.88;;;;;;;7.99;100.00;99482.47;5092209;28;20048;-82
2021/10/17 17:05:27;;;;;;;42.20;24.25;;;;;;;7.94;100.00;99488.38;5093419;28;20052;-82
2021/10/17 17:07:54;;;;;;;58.47;33.13;;;;;;;8.01;100.00;99488.59;5093548;28;20063;-82
2021/10/17 17:10:22;;;;;;;48.83;29.83;;;;;;;7.98;100.00;99480.78;5093569;28;20044;-82
2021/10/17 17:12:49;;;;;;;39.83;21.80;;;;;;;7.98;100.00;99489.75;5074873;28;20044;-82
2021/10/17 17:15:17;;;;;;;48.22;24.95;;;;;;;8.07;100.00;99498.78;5080181;28;20487;-82
2021/10/17 17:17:45;;;;;;;37.50;21.83;;;;;;;7.97;100.00;99498.88;5093181;28;20055;-82
2021/10/17 17:20:14;;;;;;;31.75;19.20;;;;;;;8.02;100.00;99503.81;5093609;28;20051;-82
2021/10/17 17:22:41;;;;;;;57.20;33.23;;;;;;;8.04;100.00;99496.38;5093571;28;20133;-82
2021/10/17 17:25:13;;;;;;;37.22;22.65;;;;;;;7.96;100.00;99491.78;5093343;28;20278;-81
2021/10/17 17:27:40;;;;;;;39.50;21.10;;;;;;;8.03;100.00;99491.13;5092742;28;20567;-82
2021/10/17 17:30:08;;;;;;;39.55;21.75;;;;;;;7.96;100.00;99502.59;5073809;28;20048;-82
2021/10/17 17:32:36;;;;;;;43.05;21.05;;;;;;;8.01;100.00;99507.53;5080171;28;20298;-82
2021/10/17 17:35:04;;;;;;;55.75;31.30;;;;;;;8.10;100.00;99511.13;5092725;28;20051;-82
2021/10/17 17:37:31;;;;;;;51.58;26.27;;;;;;;8.02;100.00;99495.69;5092650;28;20492;-82
2021/10/17 17:40:01;;;;;;;45.70;23.50;;;;;;;8.18;100.00;99513.88;5092499;28;20380;-82
2021/10/17 17:42:28;;;;;;;59.20;34.80;;;;;;;8.03;100.00;99491.97;5092835;28;20074;-82
2021/10/17 17:44:55;;;;;;;56.28;27.80;;;;;;;7.94;100.00;99498.34;5092838;28;20048;-82
2021/10/17 17:47:22;;;;;;;55.03;26.00;;;;;;;7.97;100.00;99503.44;5092670;28;20071;-82
2021/10/17 17:49:51;;;;;;;54.60;27.55;;;;;;;7.93;100.00;99521.00;5090802;28;20082;-82
2021/10/17 17:52:17;;;;;;;42.33;22.63;;;;;;;7.85;100.00;99513.69;5072290;28;20055;-82
2021/10/17 17:54:44;;;;;;;45.72;25.90;;;;;;;8.01;100.00;99512.09;5078166;28;20040;-82
2021/10/17 17:57:14;;;;;;;46.13;26.05;;;;;;;7.97;100.00;99506.16;5092528;28;20416;-82
2021/10/17 17:59:44;;;;;;;45.47;22.27;;;;;;;7.97;100.00;99508.84;5093130;28;20059;-82
2021/10/17 18:02:11;;;;;;;47.22;22.13;;;;;;;8.02;100.00;99505.66;5093525;28;20051;-82
2021/10/17 18:04:40;;;;;;;49.60;25.10;;;;;;;7.91;100.00;99514.91;5092274;28;20048;-82
2021/10/17 18:07:09;;;;;;;46.33;23.58;;;;;;;7.78;100.00;99509.91;5091856;28;20044;-82
2021/10/17 18:09:36;;;;;;;46.58;23.02;;;;;;;7.91;100.00;99520.31;5092760;28;20193;-82
2021/10/17 18:12:03;;;;;;;45.20;24.25;;;;;;;7.86;100.00;99520.81;5092149;28;20048;-82
2021/10/17 18:14:30;;;;;;;46.83;23.50;;;;;;;7.82;100.00;99522.13;5091924;28;20510;-82
2021/10/17 18:16:57;;;;;;;43.88;23.48;;;;;;;7.92;100.00;99528.28;5092160;28;20044;-82
2021/10/17 18:19:24;;;;;;;41.10;22.83;;;;;;;7.91;100.00;99526.59;5092240;28;20101;-82
2021/10/17 18:21:51;;;;;;;40.67;23.05;;;;;;;7.88;100.00;99532.31;5092463;28;20557;-83
2021/10/17 18:24:22;;;;;;;41.28;23.60;;;;;;;7.84;100.00;99513.84;5091854;28;20415;-83
2021/10/17 18:26:52;;;;;;;39.15;22.60;;;;;;;7.83;100.00;99526.53;5092304;28;20475;-83
2021/10/17 18:29:19;;;;;;;50.90;23.42;;;;;;;7.90;100.00;99534.88;5091773;28;20138;-83
2021/10/17 18:31:46;;;;;;;47.88;24.92;;;;;;;8.12;100.00;99533.50;5091901;28;20052;-82
2021/10/17 18:34:14;;;;;;;44.38;22.13;;;;;;;7.92;100.00;99524.75;5083765;28;20048;-82
2021/10/17 18:36:40;;;;;;;66.65;29.40;;;;;;;7.94;100.00;99536.25;5071792;28;20511;-82
2021/10/17 18:39:07;;;;;;;43.97;23.17;;;;;;;7.91;100.00;99540.13;5070935;28;20072;-83
2021/10/17 18:41:35;;;;;;;54.63;29.40;;;;;;;8.05;100.00;99541.38;5072003;28;20045;-83